createdAt,value
2022-09-29T00:00:03.459Z,7.62
2022-09-29T00:01:03.462Z,7.66
2022-09-29T00:02:03.571Z,7.67
2022-09-29T00:03:03.564Z,7.66
2022-09-29T00:04:03.396Z,7.67
2022-09-29T00:05:03.365Z,7.73
2022-09-29T00:06:03.407Z,7.66
2022-09-29T00:07:03.335Z,7.69
2022-09-29T00:08:03.339Z,7.63
2022-09-29T00:09:03.308Z,7.74
2022-09-29T00:10:03.292Z,7.63
2022-09-29T00:11:03.300Z,7.66
2022-09-29T00:12:03.465Z,7.63
2022-09-29T00:13:03.247Z,7.73
2022-09-29T00:14:03.264Z,7.55
2022-09-29T00:15:03.205Z,7.63
2022-09-29T00:16:03.247Z,7.62
2022-09-29T00:17:03.191Z,7.69
2022-09-29T00:18:13.569Z,7.60
2022-09-29T00:19:05.141Z,7.58
2022-09-29T00:20:03.132Z,7.69
2022-09-29T00:21:03.158Z,7.60
2022-09-29T00:22:03.179Z,7.58
2022-09-29T00:23:03.069Z,7.54
2022-09-29T00:24:03.087Z,7.58
2022-09-29T00:25:03.043Z,7.60
2022-09-29T00:26:03.069Z,7.71
2022-09-29T00:27:03.001Z,7.54
2022-09-29T00:28:02.990Z,7.55
2022-09-29T00:29:02.970Z,7.55
2022-09-29T00:30:02.956Z,7.60
2022-09-29T00:31:03.010Z,7.52
2022-09-29T00:32:03.031Z,7.63
2022-09-29T00:33:02.918Z,7.69
2022-09-29T00:34:02.879Z,7.62
2022-09-29T00:35:02.879Z,7.57
2022-09-29T00:36:02.881Z,7.50
2022-09-29T00:37:02.873Z,7.57
2022-09-29T00:38:02.814Z,7.51
2022-09-29T00:39:02.821Z,7.45
2022-09-29T00:40:02.791Z,7.47
2022-09-29T00:41:02.765Z,7.47
2022-09-29T00:42:02.862Z,7.41
2022-09-29T00:43:02.765Z,7.37
2022-09-29T00:44:02.714Z,7.37
2022-09-29T00:45:02.732Z,7.47
2022-09-29T00:46:02.776Z,7.54
2022-09-29T00:47:02.775Z,7.42
2022-09-29T00:48:02.635Z,7.45
2022-09-29T00:49:02.628Z,7.52
2022-09-29T00:50:02.622Z,7.48
2022-09-29T00:51:02.620Z,7.50
2022-09-29T00:52:02.671Z,7.55
2022-09-29T00:53:02.564Z,7.48
2022-09-29T00:54:02.538Z,7.54
2022-09-29T00:55:02.522Z,7.48
2022-09-29T00:56:02.522Z,7.48
2022-09-29T00:57:02.519Z,7.45
2022-09-29T00:58:02.546Z,7.44
2022-09-29T00:59:02.460Z,7.36
2022-09-29T01:00:02.446Z,7.44
2022-09-29T01:01:02.508Z,7.48
2022-09-29T01:02:02.632Z,7.54
2022-09-29T01:03:02.413Z,7.52
2022-09-29T01:04:02.372Z,7.52
2022-09-29T01:05:02.346Z,7.45
2022-09-29T01:06:02.337Z,7.51
2022-09-29T01:07:02.344Z,7.58
2022-09-29T01:08:02.294Z,7.63
2022-09-29T01:09:02.345Z,7.69
2022-09-29T01:10:02.349Z,7.74
2022-09-29T01:11:02.263Z,7.63
2022-09-29T01:12:02.308Z,7.71
2022-09-29T01:13:02.238Z,7.69
2022-09-29T01:14:02.226Z,7.76
2022-09-29T01:15:02.185Z,7.60
2022-09-29T01:16:02.263Z,7.81
2022-09-29T01:17:02.205Z,7.74
2022-09-29T01:18:02.141Z,7.71
2022-09-29T01:19:03.137Z,7.74
2022-09-29T01:20:04.600Z,7.74
2022-09-29T01:21:03.098Z,7.71
2022-09-29T01:22:02.169Z,7.73
2022-09-29T01:23:02.058Z,7.76
2022-09-29T01:24:02.041Z,7.67
2022-09-29T01:25:02.064Z,7.66
2022-09-29T01:26:01.987Z,7.71
2022-09-29T01:27:02.018Z,7.66
2022-09-29T01:28:01.980Z,7.66
2022-09-29T01:29:01.949Z,7.57
2022-09-29T01:30:01.930Z,7.45
2022-09-29T01:31:02.010Z,7.60
2022-09-29T01:32:02.008Z,7.55
2022-09-29T01:33:01.873Z,7.55
2022-09-29T01:34:01.864Z,7.57
2022-09-29T01:35:01.948Z,7.51
2022-09-29T01:36:01.864Z,7.51
2022-09-29T01:37:01.836Z,7.60
2022-09-29T01:38:01.794Z,7.74
2022-09-29T01:39:01.785Z,7.69
2022-09-29T01:40:01.764Z,7.67
2022-09-29T01:41:01.806Z,7.62
2022-09-29T01:42:01.810Z,7.63
2022-09-29T01:43:01.720Z,7.70
2022-09-29T01:44:01.693Z,7.63
2022-09-29T01:45:01.725Z,7.81
2022-09-29T01:46:01.674Z,7.77
2022-09-29T01:47:01.665Z,7.81
2022-09-29T01:48:01.607Z,7.79
2022-09-29T01:49:01.610Z,7.86
2022-09-29T01:50:01.588Z,7.84
2022-09-29T01:51:01.579Z,7.85
2022-09-29T01:52:02.057Z,7.86
2022-09-29T01:53:01.648Z,7.86
2022-09-29T01:54:01.511Z,7.99
2022-09-29T01:55:01.506Z,8.04
2022-09-29T01:56:01.491Z,7.99
2022-09-29T01:57:01.511Z,8.00
2022-09-29T01:58:01.468Z,8.03
2022-09-29T01:59:01.430Z,8.09
2022-09-29T02:00:01.696Z,8.12
2022-09-29T02:01:01.431Z,8.22
2022-09-29T02:02:01.586Z,8.10
2022-09-29T02:03:01.364Z,8.20
2022-09-29T02:04:01.453Z,8.17
2022-09-29T02:05:01.325Z,8.20
2022-09-29T02:06:01.333Z,8.10
2022-09-29T02:07:01.338Z,8.14
2022-09-29T02:08:01.273Z,8.24
2022-09-29T02:09:01.263Z,8.22
2022-09-29T02:10:01.245Z,8.22
2022-09-29T02:11:01.214Z,8.25
2022-09-29T02:12:01.303Z,8.27
2022-09-29T02:13:01.175Z,8.21
2022-09-29T02:14:01.171Z,8.24
2022-09-29T02:15:01.227Z,8.21
2022-09-29T02:16:01.179Z,8.31
2022-09-29T02:17:01.132Z,8.17
2022-09-29T02:18:01.092Z,8.28
2022-09-29T02:19:01.081Z,8.24
2022-09-29T02:20:01.051Z,8.22
2022-09-29T02:21:02.036Z,8.21
2022-09-29T02:22:01.180Z,8.18
2022-09-29T02:23:01.014Z,8.17
2022-09-29T02:24:01.000Z,8.21
2022-09-29T02:25:00.989Z,8.10
2022-09-29T02:26:01.051Z,8.17
2022-09-29T02:27:00.996Z,8.18
2022-09-29T02:28:00.933Z,8.21
2022-09-29T02:29:00.910Z,8.24
2022-09-29T02:30:00.894Z,8.22
2022-09-29T02:31:00.878Z,8.22
2022-09-29T02:32:00.964Z,8.24
2022-09-29T02:33:00.851Z,8.24
2022-09-29T02:34:00.846Z,8.18
2022-09-29T02:35:00.812Z,8.25
2022-09-29T02:36:00.806Z,8.22
2022-09-29T02:37:00.854Z,8.25
2022-09-29T02:38:00.779Z,8.21
2022-09-29T02:39:00.746Z,8.17
2022-09-29T02:40:00.734Z,8.12
2022-09-29T02:41:00.796Z,8.18
2022-09-29T02:42:00.787Z,8.13
2022-09-29T02:43:00.653Z,8.20
2022-09-29T02:44:00.642Z,8.18
2022-09-29T02:45:00.627Z,8.10
2022-09-29T02:46:00.692Z,8.22
2022-09-29T02:47:00.615Z,8.07
2022-09-29T02:48:00.642Z,8.14
2022-09-29T02:49:00.579Z,8.17
2022-09-29T02:50:00.537Z,8.17
2022-09-29T02:51:00.529Z,8.24
2022-09-29T02:52:00.622Z,8.21
2022-09-29T02:53:00.503Z,8.21
2022-09-29T02:54:00.472Z,8.22
2022-09-29T02:55:00.458Z,8.29
2022-09-29T02:56:00.443Z,8.25
2022-09-29T02:57:00.440Z,8.31
2022-09-29T02:58:00.417Z,8.22
2022-09-29T02:59:00.447Z,8.27
2022-09-29T03:00:00.377Z,8.25
2022-09-29T03:01:00.445Z,8.20
2022-09-29T03:02:00.359Z,8.27
2022-09-29T03:03:00.331Z,8.25
2022-09-29T03:04:04.167Z,8.21
2022-09-29T03:05:01.277Z,8.20
2022-09-29T03:06:00.254Z,8.14
2022-09-29T03:07:00.303Z,8.12
2022-09-29T03:08:00.221Z,8.20
2022-09-29T03:09:00.205Z,8.14
2022-09-29T03:10:00.225Z,8.18
2022-09-29T03:11:01.178Z,8.02
2022-09-29T03:12:00.189Z,7.99
2022-09-29T03:13:00.141Z,8.03
2022-09-29T03:14:00.130Z,7.96
2022-09-29T03:15:00.121Z,7.81
2022-09-29T03:16:00.172Z,7.88
2022-09-29T03:17:01.109Z,7.81
2022-09-29T03:18:00.080Z,7.79
2022-09-29T03:19:00.069Z,7.76
2022-09-29T03:20:00.027Z,7.73
2022-09-29T03:21:00.033Z,7.76
2022-09-29T03:22:00.105Z,7.66
2022-09-29T03:22:59.991Z,7.70
2022-09-29T03:23:59.963Z,7.63
2022-09-29T03:24:59.956Z,7.51
2022-09-29T03:25:59.923Z,7.50
2022-09-29T03:26:59.937Z,7.39
2022-09-29T03:27:59.920Z,7.47
2022-09-29T03:28:59.889Z,7.47
2022-09-29T03:29:59.853Z,7.34
2022-09-29T03:30:59.874Z,7.26
2022-09-29T03:31:59.924Z,7.29
2022-09-29T03:32:59.807Z,7.33
2022-09-29T03:33:59.807Z,7.27
2022-09-29T03:34:59.775Z,7.32
2022-09-29T03:35:59.765Z,7.26
2022-09-29T03:36:59.757Z,7.18
2022-09-29T03:37:59.727Z,7.26
2022-09-29T03:38:59.718Z,7.14
2022-09-29T03:39:59.695Z,7.18
2022-09-29T03:40:59.720Z,7.11
2022-09-29T03:41:59.792Z,7.18
2022-09-29T03:43:00.459Z,7.11
2022-09-29T03:43:59.629Z,7.15
2022-09-29T03:44:59.603Z,7.07
2022-09-29T03:45:59.669Z,7.14
2022-09-29T03:46:59.595Z,7.11
2022-09-29T03:47:59.553Z,7.12
2022-09-29T03:48:59.527Z,7.12
2022-09-29T03:49:59.513Z,7.14
2022-09-29T03:50:59.488Z,7.19
2022-09-29T03:51:59.547Z,7.16
2022-09-29T03:52:59.456Z,7.12
2022-09-29T03:53:59.492Z,7.12
2022-09-29T03:54:59.410Z,7.05
2022-09-29T03:55:59.402Z,7.09
2022-09-29T03:56:59.418Z,7.16
2022-09-29T03:57:59.385Z,7.14
2022-09-29T03:58:59.365Z,7.09
2022-09-29T03:59:59.338Z,7.12
2022-09-29T04:00:59.362Z,7.16
2022-09-29T04:01:59.446Z,7.12
2022-09-29T04:02:59.297Z,7.09
2022-09-29T04:03:59.270Z,7.09
2022-09-29T04:04:59.427Z,6.99
2022-09-29T04:05:59.235Z,7.01
2022-09-29T04:06:59.269Z,7.05
2022-09-29T04:07:59.214Z,6.96
2022-09-29T04:08:59.204Z,7.08
2022-09-29T04:09:59.705Z,6.90
2022-09-29T04:10:59.155Z,6.99
2022-09-29T04:11:59.208Z,6.91
2022-09-29T04:12:59.158Z,6.94
2022-09-29T04:13:59.125Z,6.96
2022-09-29T04:14:59.102Z,6.91
2022-09-29T04:15:59.155Z,6.79
2022-09-29T04:16:59.061Z,6.81
2022-09-29T04:17:59.095Z,6.90
2022-09-29T04:18:59.038Z,6.82
2022-09-29T04:19:59.035Z,6.73
2022-09-29T04:20:58.990Z,6.87
2022-09-29T04:21:59.048Z,6.89
2022-09-29T04:22:58.984Z,6.89
2022-09-29T04:23:58.962Z,6.87
2022-09-29T04:24:58.930Z,6.90
2022-09-29T04:25:58.895Z,6.86
2022-09-29T04:26:58.963Z,6.82
2022-09-29T04:27:58.899Z,6.96
2022-09-29T04:28:58.861Z,6.82
2022-09-29T04:29:58.827Z,6.83
2022-09-29T04:30:58.827Z,6.86
2022-09-29T04:31:59.465Z,6.90
2022-09-29T04:32:58.829Z,6.76
2022-09-29T04:33:58.760Z,6.81
2022-09-29T04:34:58.750Z,6.81
2022-09-29T04:35:58.729Z,6.78
2022-09-29T04:36:58.712Z,6.82
2022-09-29T04:37:58.745Z,6.79
2022-09-29T04:38:58.679Z,6.79
2022-09-29T04:39:58.654Z,6.72
2022-09-29T04:40:58.707Z,6.71
2022-09-29T04:41:58.655Z,6.72
2022-09-29T04:42:58.651Z,6.63
2022-09-29T04:43:58.603Z,6.75
2022-09-29T04:44:58.578Z,6.72
2022-09-29T04:45:58.585Z,6.68
2022-09-29T04:46:58.548Z,6.60
2022-09-29T04:47:58.544Z,6.64
2022-09-29T04:48:58.541Z,6.57
2022-09-29T04:49:58.486Z,6.64
2022-09-29T04:50:58.471Z,6.58
2022-09-29T04:51:58.463Z,6.69
2022-09-29T04:52:58.461Z,6.68
2022-09-29T04:53:59.415Z,6.57
2022-09-29T04:54:58.396Z,6.57
2022-09-29T04:55:58.390Z,6.54
2022-09-29T04:56:58.356Z,6.54
2022-09-29T04:57:58.368Z,6.64
2022-09-29T04:58:58.319Z,6.57
2022-09-29T04:59:58.311Z,6.61
2022-09-29T05:00:58.339Z,6.63
2022-09-29T05:01:58.409Z,6.64
2022-09-29T05:02:58.281Z,6.79
2022-09-29T05:03:58.244Z,6.76
2022-09-29T05:04:58.218Z,6.72
2022-09-29T05:05:58.211Z,6.81
2022-09-29T05:06:58.195Z,6.73
2022-09-29T05:07:58.222Z,6.82
2022-09-29T05:08:58.172Z,6.82
2022-09-29T05:09:58.144Z,6.82
2022-09-29T05:10:58.152Z,6.90
2022-09-29T05:11:58.171Z,6.89
2022-09-29T05:12:58.101Z,6.96
2022-09-29T05:13:59.068Z,7.04
2022-09-29T05:14:58.062Z,7.00
2022-09-29T05:15:58.114Z,6.99
2022-09-29T05:16:58.027Z,7.07
2022-09-29T05:17:58.051Z,7.09
2022-09-29T05:18:57.979Z,7.00
2022-09-29T05:19:58.027Z,7.11
2022-09-29T05:21:16.158Z,7.15
2022-09-29T05:21:59.954Z,7.15
2022-09-29T05:22:57.988Z,7.07
2022-09-29T05:23:57.924Z,7.09
2022-09-29T05:24:57.900Z,7.04
2022-09-29T05:25:57.883Z,7.09
2022-09-29T05:26:58.726Z,6.97
2022-09-29T05:27:58.863Z,7.08
2022-09-29T05:28:57.810Z,7.00
2022-09-29T05:29:57.797Z,6.99
2022-09-29T05:30:57.777Z,6.91
2022-09-29T05:31:57.938Z,7.04
2022-09-29T05:32:59.091Z,6.93
2022-09-29T05:33:58.733Z,7.04
2022-09-29T05:34:57.723Z,7.05
2022-09-29T05:35:57.737Z,7.04
2022-09-29T05:36:57.697Z,7.05
2022-09-29T05:37:57.756Z,7.07
2022-09-29T05:38:57.656Z,7.21
2022-09-29T05:39:57.621Z,7.63
2022-09-29T05:40:57.669Z,7.99
2022-09-29T05:41:59.657Z,8.37
2022-09-29T05:42:58.612Z,8.76
2022-09-29T05:43:57.599Z,9.06
2022-09-29T05:44:57.547Z,9.50
2022-09-29T05:45:57.673Z,9.71
2022-09-29T05:46:57.516Z,9.95
2022-09-29T05:47:57.523Z,10.39
2022-09-29T05:48:57.486Z,10.78
2022-09-29T05:49:57.449Z,11.12
2022-09-29T05:50:57.428Z,11.44
2022-09-29T05:51:57.490Z,11.46
2022-09-29T05:52:57.446Z,11.60
2022-09-29T05:53:57.388Z,11.87
2022-09-29T05:54:57.509Z,12.15
2022-09-29T05:55:57.387Z,12.52
2022-09-29T05:56:57.329Z,12.88
2022-09-29T05:57:57.349Z,12.96
2022-09-29T05:58:57.323Z,13.24
2022-09-29T05:59:57.282Z,13.50
2022-09-29T06:00:57.376Z,13.65
2022-09-29T06:01:57.349Z,13.88
2022-09-29T06:02:57.268Z,14.11
2022-09-29T06:03:57.219Z,14.12
2022-09-29T06:04:57.215Z,14.35
2022-09-29T06:05:57.225Z,14.64
2022-09-29T06:06:57.184Z,14.79
2022-09-29T06:07:57.191Z,15.03
2022-09-29T06:08:57.137Z,15.16
2022-09-29T06:09:57.124Z,15.41
2022-09-29T06:10:57.110Z,15.67
2022-09-29T06:11:57.121Z,15.92
2022-09-29T06:12:57.124Z,16.27
2022-09-29T06:13:57.085Z,16.54
2022-09-29T06:14:57.054Z,16.80
2022-09-29T06:15:57.012Z,17.18
2022-09-29T06:16:57.110Z,17.17
2022-09-29T06:17:57.023Z,17.38
2022-09-29T06:18:56.963Z,17.55
2022-09-29T06:19:56.967Z,17.83
2022-09-29T06:20:56.964Z,17.89
2022-09-29T06:21:57.021Z,18.16
2022-09-29T06:22:57.933Z,18.29
2022-09-29T06:23:56.891Z,18.47
2022-09-29T06:24:56.860Z,18.57
2022-09-29T06:25:56.884Z,18.59
2022-09-29T06:26:56.836Z,18.76
2022-09-29T06:27:56.980Z,18.87
2022-09-29T06:28:56.791Z,18.84
2022-09-29T06:29:56.783Z,18.89
2022-09-29T06:30:56.759Z,18.87
2022-09-29T06:31:56.890Z,18.90
2022-09-29T06:32:56.766Z,18.83
2022-09-29T06:33:56.721Z,19.21
2022-09-29T06:34:58.609Z,19.39
2022-09-29T06:35:57.691Z,19.46
2022-09-29T06:36:57.695Z,19.61
2022-09-29T06:37:56.686Z,19.72
2022-09-29T06:38:56.714Z,20.02
2022-09-29T06:39:56.610Z,20.19
2022-09-29T06:40:56.698Z,20.57
2022-09-29T06:41:56.660Z,20.64
2022-09-29T06:42:56.600Z,20.68
2022-09-29T06:43:56.563Z,20.61
2022-09-29T06:44:56.540Z,20.78
2022-09-29T06:45:56.583Z,21.08
2022-09-29T06:46:56.503Z,21.18
2022-09-29T06:47:56.525Z,21.46
2022-09-29T06:48:56.511Z,21.66
2022-09-29T06:50:02.893Z,21.90
2022-09-29T06:51:08.672Z,21.99
2022-09-29T06:51:58.586Z,22.06
2022-09-29T06:53:03.952Z,22.19
2022-09-29T06:54:09.850Z,22.31
2022-09-29T06:54:58.998Z,22.45
2022-09-29T06:55:56.369Z,22.48
2022-09-29T06:56:56.360Z,22.35
2022-09-29T06:57:58.910Z,22.30
2022-09-29T06:58:57.334Z,22.46
2022-09-29T06:59:56.301Z,22.45
2022-09-29T07:00:56.310Z,22.67
2022-09-29T07:01:56.315Z,22.69
2022-09-29T07:02:56.288Z,22.75
2022-09-29T07:03:56.277Z,22.66
2022-09-29T07:04:56.221Z,22.76
2022-09-29T07:06:20.701Z,22.94
2022-09-29T07:06:58.238Z,23.26
2022-09-29T07:08:00.657Z,23.52
2022-09-29T07:08:57.171Z,23.72
2022-09-29T07:09:56.149Z,23.87
2022-09-29T07:10:56.147Z,23.99
2022-09-29T07:11:56.786Z,23.86
2022-09-29T07:12:56.189Z,23.82
2022-09-29T07:13:56.126Z,23.74
2022-09-29T07:14:56.077Z,23.93
2022-09-29T07:15:56.041Z,23.99
2022-09-29T07:16:56.095Z,23.99
2022-09-29T07:17:56.072Z,23.96
2022-09-29T07:18:55.996Z,23.84
2022-09-29T07:19:55.998Z,23.77
2022-09-29T07:20:55.962Z,23.07
2022-09-29T07:21:55.971Z,23.04
2022-09-29T07:22:56.088Z,22.96
2022-09-29T07:23:59.987Z,22.82
2022-09-29T07:24:57.899Z,23.18
2022-09-29T07:25:55.882Z,23.06
2022-09-29T07:26:55.888Z,23.35
2022-09-29T07:27:55.898Z,23.68
2022-09-29T07:28:55.864Z,23.90
2022-09-29T07:30:03.026Z,24.00
2022-09-29T07:31:07.436Z,24.06
2022-09-29T07:31:57.949Z,23.90
2022-09-29T07:33:01.874Z,24.06
2022-09-29T07:33:57.794Z,24.52
2022-09-29T07:34:55.760Z,24.68
2022-09-29T07:35:55.766Z,24.93
2022-09-29T07:36:55.723Z,25.23
2022-09-29T07:37:55.729Z,25.29
2022-09-29T07:38:55.687Z,25.31
2022-09-29T07:39:55.733Z,25.35
2022-09-29T07:40:55.713Z,25.45
2022-09-29T07:41:55.662Z,25.66
2022-09-29T07:42:55.664Z,25.67
2022-09-29T07:43:55.614Z,25.60
2022-09-29T07:44:55.646Z,25.59
2022-09-29T07:45:56.674Z,25.57
2022-09-29T07:46:55.574Z,25.60
2022-09-29T07:47:55.594Z,25.60
2022-09-29T07:48:55.551Z,25.34
2022-09-29T07:49:55.595Z,25.53
2022-09-29T07:50:55.506Z,25.02
2022-09-29T07:51:55.494Z,25.04
2022-09-29T07:52:55.511Z,24.87
2022-09-29T07:53:55.468Z,24.98
2022-09-29T07:54:55.467Z,24.67
2022-09-29T07:55:55.430Z,24.84
2022-09-29T07:56:55.408Z,25.04
2022-09-29T07:57:55.455Z,25.04
2022-09-29T07:58:55.443Z,25.16
2022-09-29T07:59:55.360Z,25.30
2022-09-29T08:00:55.396Z,25.51
2022-09-29T08:01:55.375Z,25.66
2022-09-29T08:02:56.353Z,25.67
2022-09-29T08:03:55.336Z,25.67
2022-09-29T08:05:00.691Z,25.71
2022-09-29T08:05:57.292Z,25.60
2022-09-29T08:06:55.267Z,25.61
2022-09-29T08:07:55.281Z,25.38
2022-09-29T08:09:03.654Z,25.36
2022-09-29T08:10:03.661Z,25.17
2022-09-29T08:10:56.224Z,24.93
2022-09-29T08:12:05.199Z,24.70
2022-09-29T08:12:57.220Z,24.42
2022-09-29T08:13:55.191Z,24.21
2022-09-29T08:14:55.148Z,24.15
2022-09-29T08:15:55.159Z,24.26
2022-09-29T08:16:55.151Z,24.27
2022-09-29T08:17:55.146Z,24.52
2022-09-29T08:18:55.098Z,24.59
2022-09-29T08:19:55.118Z,24.61
2022-09-29T08:20:56.717Z,24.41
2022-09-29T08:21:55.046Z,24.23
2022-09-29T08:22:55.067Z,24.21
2022-09-29T08:23:55.009Z,24.29
2022-09-29T08:24:55.016Z,24.53
2022-09-29T08:26:01.136Z,24.53
2022-09-29T08:26:57.098Z,24.30
2022-09-29T08:27:55.965Z,24.71
2022-09-29T08:29:05.101Z,24.45
2022-09-29T08:29:56.938Z,24.33
2022-09-29T08:30:54.919Z,24.45
2022-09-29T08:31:54.985Z,24.41
2022-09-29T08:32:54.937Z,24.68
2022-09-29T08:33:54.906Z,24.92
2022-09-29T08:34:54.882Z,25.11
2022-09-29T08:35:54.854Z,25.02
2022-09-29T08:37:31.976Z,25.29
2022-09-29T08:37:55.902Z,25.60
2022-09-29T08:38:54.888Z,25.83
2022-09-29T08:39:54.867Z,25.59
2022-09-29T08:40:54.879Z,25.29
2022-09-29T08:41:54.758Z,25.49
2022-09-29T08:42:54.769Z,25.31
2022-09-29T08:43:54.716Z,25.14
2022-09-29T08:44:57.044Z,25.23
2022-09-29T08:46:00.632Z,25.76
2022-09-29T08:47:07.128Z,25.91
2022-09-29T08:47:56.755Z,25.89
2022-09-29T08:48:58.331Z,26.04
2022-09-29T08:49:55.633Z,26.44
2022-09-29T08:50:54.628Z,26.64
2022-09-29T08:51:54.731Z,26.78
2022-09-29T08:52:54.627Z,26.91
2022-09-29T08:54:02.256Z,26.97
2022-09-29T08:54:56.559Z,27.16
2022-09-29T08:55:54.540Z,27.23
2022-09-29T08:56:54.533Z,27.33
2022-09-29T08:57:54.560Z,27.23
2022-09-29T08:58:54.513Z,27.40
2022-09-29T08:59:54.490Z,27.30
2022-09-29T09:00:54.549Z,27.24
2022-09-29T09:01:54.542Z,27.23
2022-09-29T09:02:56.875Z,27.34
2022-09-29T09:03:55.436Z,27.68
2022-09-29T09:04:54.419Z,27.90
2022-09-29T09:05:54.409Z,28.06
2022-09-29T09:06:54.385Z,27.93
2022-09-29T09:07:54.416Z,27.65
2022-09-29T09:08:55.373Z,26.32
2022-09-29T09:09:54.357Z,25.04
2022-09-29T09:10:54.342Z,24.99
2022-09-29T09:11:54.351Z,24.70
2022-09-29T09:12:54.333Z,24.67
2022-09-29T09:13:54.282Z,25.02
2022-09-29T09:14:54.266Z,25.30
2022-09-29T09:15:55.256Z,25.57
2022-09-29T09:16:54.336Z,25.69
2022-09-29T09:17:54.256Z,26.01
2022-09-29T09:18:54.249Z,26.49
2022-09-29T09:19:54.196Z,26.81
2022-09-29T09:20:54.207Z,26.98
2022-09-29T09:21:54.178Z,27.13
2022-09-29T09:22:54.183Z,27.50
2022-09-29T09:23:56.863Z,27.81
2022-09-29T09:24:55.128Z,27.78
2022-09-29T09:25:54.107Z,27.91
2022-09-29T09:26:54.115Z,28.06
2022-09-29T09:27:54.160Z,27.91
2022-09-29T09:28:54.072Z,28.17
2022-09-29T09:29:55.080Z,28.48
2022-09-29T09:30:54.090Z,28.20
2022-09-29T09:31:54.045Z,28.03
2022-09-29T09:32:54.057Z,28.11
2022-09-29T09:34:04.071Z,27.86
2022-09-29T09:34:59.684Z,27.68
2022-09-29T09:35:58.868Z,27.76
2022-09-29T09:37:05.695Z,27.96
2022-09-29T09:37:55.971Z,28.15
2022-09-29T09:38:53.929Z,28.51
2022-09-29T09:39:53.919Z,28.73
2022-09-29T09:40:53.894Z,28.87
2022-09-29T09:41:53.888Z,29.07
2022-09-29T09:42:53.901Z,29.15
2022-09-29T09:43:53.859Z,28.87
2022-09-29T09:44:53.925Z,28.55
2022-09-29T09:45:53.858Z,28.33
2022-09-29T09:46:53.816Z,28.35
2022-09-29T09:47:53.827Z,28.57
2022-09-29T09:48:53.822Z,28.69
2022-09-29T09:49:53.817Z,29.02
2022-09-29T09:50:53.819Z,29.17
2022-09-29T09:51:53.785Z,29.10
2022-09-29T09:52:53.923Z,29.15
2022-09-29T09:53:53.723Z,29.23
2022-09-29T09:54:53.730Z,29.32
2022-09-29T09:55:53.692Z,28.36
2022-09-29T09:56:53.663Z,27.71
2022-09-29T09:57:53.711Z,27.96
2022-09-29T09:58:53.646Z,28.28
2022-09-29T09:59:56.609Z,28.60
2022-09-29T10:00:54.702Z,28.76
2022-09-29T10:01:53.621Z,28.77
2022-09-29T10:02:53.701Z,28.50
2022-09-29T10:03:53.576Z,27.84
2022-09-29T10:04:53.550Z,26.60
2022-09-29T10:05:53.544Z,25.64
2022-09-29T10:06:53.521Z,24.97
2022-09-29T10:07:53.545Z,24.23
2022-09-29T10:08:53.483Z,24.80
2022-09-29T10:09:53.506Z,25.67
2022-09-29T10:10:58.567Z,26.16
2022-09-29T10:11:55.447Z,26.12
2022-09-29T10:12:57.732Z,26.34
2022-09-29T10:13:55.506Z,26.66
2022-09-29T10:14:53.424Z,25.97
2022-09-29T10:15:53.404Z,25.08
2022-09-29T10:16:53.400Z,24.27
2022-09-29T10:17:53.437Z,23.60
2022-09-29T10:18:53.342Z,24.29
2022-09-29T10:19:53.335Z,24.99
2022-09-29T10:20:53.337Z,25.41
2022-09-29T10:21:53.313Z,26.03
2022-09-29T10:22:53.321Z,26.28
2022-09-29T10:23:53.263Z,26.60
2022-09-29T10:24:53.271Z,26.83
2022-09-29T10:25:53.262Z,26.61
2022-09-29T10:26:53.223Z,25.20
2022-09-29T10:27:53.238Z,24.08
2022-09-29T10:28:53.188Z,23.15
2022-09-29T10:29:53.174Z,22.44
2022-09-29T10:30:53.225Z,21.83
2022-09-29T10:31:53.160Z,21.71
2022-09-29T10:32:53.146Z,21.18
2022-09-29T10:33:53.195Z,20.81
2022-09-29T10:34:53.094Z,20.53
2022-09-29T10:35:53.084Z,20.69
2022-09-29T10:36:53.096Z,20.81
2022-09-29T10:37:53.044Z,20.51
2022-09-29T10:38:53.141Z,20.23
2022-09-29T10:39:53.018Z,19.72
2022-09-29T10:40:53.011Z,19.49
2022-09-29T10:41:52.986Z,19.10
2022-09-29T10:42:53.009Z,18.93
2022-09-29T10:43:53.151Z,19.06
2022-09-29T10:44:52.955Z,18.78
2022-09-29T10:45:52.982Z,18.56
2022-09-29T10:46:52.912Z,18.35
2022-09-29T10:47:52.892Z,18.16
2022-09-29T10:48:52.958Z,17.95
2022-09-29T10:49:52.868Z,17.86
2022-09-29T10:50:52.923Z,17.74
2022-09-29T10:51:52.856Z,17.55
2022-09-29T10:52:52.805Z,17.45
2022-09-29T10:53:52.988Z,17.32
2022-09-29T10:54:52.777Z,17.32
2022-09-29T10:55:52.758Z,17.27
2022-09-29T10:56:52.752Z,17.22
2022-09-29T10:57:52.724Z,17.10
2022-09-29T10:59:03.153Z,17.10
2022-09-29T10:59:54.695Z,17.15
2022-09-29T11:00:52.737Z,17.09
2022-09-29T11:01:52.653Z,17.15
2022-09-29T11:02:52.645Z,17.02
2022-09-29T11:03:52.749Z,17.05
2022-09-29T11:04:52.674Z,17.00
2022-09-29T11:05:52.602Z,16.99
2022-09-29T11:06:52.639Z,16.95
2022-09-29T11:07:52.553Z,16.88
2022-09-29T11:08:52.587Z,16.91
2022-09-29T11:09:52.560Z,16.90
2022-09-29T11:10:52.521Z,16.87
2022-09-29T11:11:56.560Z,16.84
2022-09-29T11:12:53.515Z,16.91
2022-09-29T11:13:52.587Z,16.82
2022-09-29T11:14:52.445Z,16.69
2022-09-29T11:15:52.438Z,16.77
2022-09-29T11:16:52.446Z,16.81
2022-09-29T11:17:52.430Z,16.73
2022-09-29T11:18:52.424Z,16.81
2022-09-29T11:19:52.366Z,16.70
2022-09-29T11:20:52.349Z,16.81
2022-09-29T11:21:52.357Z,16.78
2022-09-29T11:22:52.409Z,16.65
2022-09-29T11:23:52.428Z,16.72
2022-09-29T11:24:52.282Z,16.62
2022-09-29T11:25:52.315Z,16.57
2022-09-29T11:26:52.230Z,16.62
2022-09-29T11:27:52.210Z,16.65
2022-09-29T11:28:53.254Z,16.65
2022-09-29T11:29:52.180Z,16.73
2022-09-29T11:30:52.229Z,16.77
2022-09-29T11:31:52.163Z,16.75
2022-09-29T11:32:52.143Z,16.80
2022-09-29T11:33:52.475Z,16.72
2022-09-29T11:34:52.120Z,16.55
2022-09-29T11:35:52.087Z,16.51
2022-09-29T11:36:52.149Z,16.50
2022-09-29T11:37:52.046Z,16.33
2022-09-29T11:38:52.053Z,16.41
2022-09-29T11:39:52.031Z,16.37
2022-09-29T11:40:52.103Z,16.47
2022-09-29T11:41:52.010Z,16.54
2022-09-29T11:42:51.986Z,16.57
2022-09-29T11:43:52.026Z,16.63
2022-09-29T11:44:51.930Z,16.65
2022-09-29T11:45:51.972Z,16.62
2022-09-29T11:46:51.898Z,16.55
2022-09-29T11:47:51.875Z,16.50
2022-09-29T11:48:51.885Z,16.59
2022-09-29T11:49:51.840Z,16.47
2022-09-29T11:50:51.819Z,16.45
2022-09-29T11:51:51.798Z,16.36
2022-09-29T11:52:51.797Z,16.18
2022-09-29T11:53:51.912Z,16.03
2022-09-29T11:54:51.850Z,15.85
2022-09-29T11:55:51.742Z,15.74
2022-09-29T11:56:51.710Z,15.80
2022-09-29T11:57:51.703Z,15.74
2022-09-29T11:58:51.716Z,15.77
2022-09-29T11:59:51.669Z,15.78
2022-09-29T12:00:51.639Z,15.70
2022-09-29T12:01:51.632Z,15.59
2022-09-29T12:02:51.700Z,15.56
2022-09-29T12:03:51.655Z,15.51
2022-09-29T12:04:51.573Z,15.38
2022-09-29T12:05:51.561Z,15.22
2022-09-29T12:06:51.563Z,15.19
2022-09-29T12:07:51.586Z,15.07
2022-09-29T12:08:51.547Z,14.94
2022-09-29T12:09:51.539Z,14.85
2022-09-29T12:10:51.531Z,14.80
2022-09-29T12:12:11.798Z,14.79
2022-09-29T12:12:53.452Z,14.78
2022-09-29T12:13:51.542Z,14.72
2022-09-29T12:14:51.441Z,14.71
2022-09-29T12:15:51.397Z,14.61
2022-09-29T12:16:51.507Z,14.66
2022-09-29T12:17:51.494Z,14.74
2022-09-29T12:18:51.434Z,14.45
2022-09-29T12:19:51.343Z,14.44
2022-09-29T12:20:51.323Z,14.29
2022-09-29T12:21:51.307Z,14.23
2022-09-29T12:22:51.323Z,14.23
2022-09-29T12:23:51.323Z,14.26
2022-09-29T12:24:51.264Z,14.27
2022-09-29T12:25:51.243Z,14.12
2022-09-29T12:26:51.224Z,14.11
2022-09-29T12:27:51.197Z,14.20
2022-09-29T12:28:51.220Z,14.02
2022-09-29T12:29:51.164Z,13.87
2022-09-29T12:30:51.195Z,13.81
2022-09-29T12:31:51.134Z,13.63
2022-09-29T12:32:51.252Z,13.66
2022-09-29T12:33:51.140Z,13.55
2022-09-29T12:34:51.120Z,13.48
2022-09-29T12:35:51.090Z,13.55
2022-09-29T12:36:51.052Z,13.57
2022-09-29T12:37:51.027Z,13.55
2022-09-29T12:38:51.091Z,13.50
2022-09-29T12:39:52.004Z,13.47
2022-09-29T12:40:50.983Z,13.47
2022-09-29T12:41:50.964Z,13.63
2022-09-29T12:42:51.010Z,13.55
2022-09-29T12:43:50.965Z,13.73
2022-09-29T12:44:50.925Z,13.66
2022-09-29T12:45:50.950Z,13.61
2022-09-29T12:46:50.888Z,13.61
2022-09-29T12:47:50.904Z,13.61
2022-09-29T12:48:50.880Z,13.54
2022-09-29T12:49:50.909Z,13.55
2022-09-29T12:50:50.900Z,13.57
2022-09-29T12:51:50.806Z,13.59
2022-09-29T12:52:50.799Z,13.54
2022-09-29T12:53:50.820Z,13.59
2022-09-29T12:54:50.793Z,13.44
2022-09-29T12:55:50.727Z,13.53
2022-09-29T12:56:50.713Z,13.50
2022-09-29T12:57:50.702Z,13.44
2022-09-29T12:58:50.719Z,13.43
2022-09-29T12:59:50.688Z,13.36
2022-09-29T13:00:50.656Z,13.41
2022-09-29T13:01:50.635Z,13.31
2022-09-29T13:02:50.702Z,13.41